Time;durP1;ratioP1;P1;durP2;ratioP2;P2;SDS_P1;SDS_P2;PMS_P1;PMS_P2;Temp;Humidity;BMP_temperature;BMP_pressure;BME280_temperature;BME280_humidity;BME280_pressure;Samples;Min_cycle;Max_cycle;Signal;HPM_P1;HPM_P2
2022/11/09 00:02:43;;;;;;;37.10;21.17;;;;;;;3.59;98.28;98992.77;2217660;80;21019;-85
2022/11/09 00:05:43;;;;;;;32.50;22.30;;;;;;;3.61;98.49;98992.42;2222593;80;20964;-85
2022/11/09 00:08:44;;;;;;;33.83;21.20;;;;;;;3.67;99.25;98988.80;2222370;80;20955;-85
2022/11/09 00:11:44;;;;;;;31.87;20.77;;;;;;;3.74;99.15;98988.23;2222392;80;20963;-85
2022/11/09 00:14:44;;;;;;;31.37;20.57;;;;;;;3.75;98.96;98990.00;2222472;80;20991;-84
2022/11/09 00:17:45;;;;;;;32.93;19.47;;;;;;;3.78;98.53;98984.95;2222163;80;21320;-84
2022/11/09 00:20:46;;;;;;;34.30;21.10;;;;;;;3.78;98.46;98989.23;2222159;80;21351;-86
2022/11/09 00:23:46;;;;;;;107.50;23.77;;;;;;;3.82;98.54;98988.13;2221967;80;20932;-86
2022/11/09 00:26:46;;;;;;;31.63;19.53;;;;;;;3.80;98.11;98983.31;2221981;80;20936;-86
2022/11/09 00:29:46;;;;;;;30.93;19.17;;;;;;;3.73;97.66;98982.59;2222183;80;20916;-85
2022/11/09 00:32:47;;;;;;;61.57;20.83;;;;;;;3.73;97.66;98982.59;2221877;80;21046;-85
2022/11/09 00:35:47;;;;;;;36.67;19.90;;;;;;;3.71;97.68;98980.36;2221912;80;21335;-84
2022/11/09 00:38:48;;;;;;;27.97;19.50;;;;;;;3.71;98.07;98984.23;2222025;80;20940;-84
2022/11/09 00:41:48;;;;;;;31.50;19.33;;;;;;;3.73;98.21;98984.30;2221408;80;20921;-84
2022/11/09 00:44:48;;;;;;;31.70;18.40;;;;;;;3.75;98.16;98979.66;2222100;80;20973;-84
2022/11/09 00:47:49;;;;;;;28.27;17.63;;;;;;;3.72;97.38;98980.84;2221772;80;21340;-83
2022/11/09 00:50:49;;;;;;;25.80;17.43;;;;;;;3.67;97.01;98989.20;2221431;80;20996;-83
2022/11/09 00:53:53;;;;;;;28.53;16.87;;;;;;;3.67;97.25;98989.20;2221354;80;20995;-83
2022/11/09 00:56:50;;;;;;;28.03;18.07;;;;;;;3.63;96.90;98983.04;2220301;80;20999;-83
2022/11/09 00:59:52;;;;;;;27.70;17.27;;;;;;;3.59;96.80;98982.44;2220535;80;21382;-83
2022/11/09 01:02:51;;;;;;;29.90;16.80;;;;;;;3.56;96.51;98975.86;2215035;80;21426;-82
2022/11/09 01:05:51;;;;;;;25.53;15.63;;;;;;;3.50;96.16;98980.77;2209698;81;20973;-85
2022/11/09 01:08:52;;;;;;;85.40;45.80;;;;;;;3.45;96.18;98974.50;2210600;81;20945;-85
2022/11/09 01:11:52;;;;;;;39.57;20.93;;;;;;;3.41;96.11;98976.48;2211672;81;20992;-85
2022/11/09 01:14:53;;;;;;;32.30;16.87;;;;;;;3.37;95.88;98974.59;2211634;81;21016;-85
2022/11/09 01:17:53;;;;;;;26.80;16.57;;;;;;;3.32;95.61;98977.38;2211737;81;20893;-85
2022/11/09 01:20:53;;;;;;;26.87;15.97;;;;;;;3.28;95.65;98971.63;2211839;81;20932;-85
2022/11/09 01:23:54;;;;;;;20.83;14.10;;;;;;;3.26;95.62;98966.80;2211819;81;20987;-85
2022/11/09 01:26:54;;;;;;;24.00;15.57;;;;;;;3.20;95.53;98967.02;2211717;81;20991;-85
2022/11/09 01:29:55;;;;;;;26.60;15.67;;;;;;;3.19;95.27;98975.58;2211537;81;20908;-85
2022/11/09 01:32:55;;;;;;;24.03;15.57;;;;;;;3.15;95.38;98969.81;2211483;80;21035;-85
2022/11/09 01:35:55;;;;;;;22.93;14.87;;;;;;;3.18;95.67;98970.35;2211237;81;20979;-84
2022/11/09 01:38:56;;;;;;;25.30;15.47;;;;;;;3.18;95.56;98970.35;2211341;81;21353;-85
2022/11/09 01:41:56;;;;;;;21.60;14.33;;;;;;;3.10;95.21;98971.31;2211620;81;20877;-85
2022/11/09 01:44:57;;;;;;;57.40;17.60;;;;;;;3.09;95.32;98968.67;2211932;81;20940;-85
2022/11/09 01:47:57;;;;;;;24.03;15.33;;;;;;;3.02;94.87;98970.10;2211558;81;21351;-84
2022/11/09 01:50:57;;;;;;;31.33;15.90;;;;;;;2.99;95.11;98962.23;2211611;81;20943;-84
2022/11/09 01:53:58;;;;;;;31.90;17.63;;;;;;;2.93;94.85;98968.41;2211295;81;20952;-83
2022/11/09 01:56:58;;;;;;;22.90;15.73;;;;;;;2.92;95.29;98965.36;2211503;81;20971;-85
2022/11/09 01:59:59;;;;;;;23.60;15.20;;;;;;;2.97;95.44;98960.41;2211235;81;20983;-85
2022/11/09 02:02:59;;;;;;;146.20;23.37;;;;;;;2.93;95.03;98954.23;2215723;80;21047;-83
2022/11/09 02:05:59;;;;;;;33.07;15.90;;;;;;;2.93;95.26;98955.92;2221719;80;20938;-84
2022/11/09 02:09:00;;;;;;;26.90;16.27;;;;;;;2.96;95.43;98958.23;2221681;80;20964;-84
2022/11/09 02:12:00;;;;;;;30.07;16.53;;;;;;;2.94;95.15;98957.69;2221733;80;20916;-84
2022/11/09 02:15:01;;;;;;;35.57;17.13;;;;;;;2.92;95.16;98953.76;2221715;80;20964;-84
2022/11/09 02:18:01;;;;;;;36.90;17.07;;;;;;;2.88;94.96;98954.03;2221399;80;20924;-83
2022/11/09 02:21:06;;;;;;;28.43;16.70;;;;;;;2.87;95.20;98952.67;2221495;80;20940;-82
2022/11/09 02:24:04;;;;;;;93.83;19.47;;;;;;;2.85;95.10;98950.44;2190785;80;20980;-83
2022/11/09 02:27:04;;;;;;;23.83;16.37;;;;;;;2.85;95.33;98952.61;2221613;80;20964;-84
2022/11/09 02:30:05;;;;;;;28.03;17.23;;;;;;;2.89;95.40;98953.62;2221965;80;21308;-84
2022/11/09 02:33:05;;;;;;;40.00;18.67;;;;;;;2.93;95.41;98951.66;2221534;80;21082;-84
2022/11/09 02:36:05;;;;;;;52.07;20.10;;;;;;;2.93;95.55;98942.63;2222048;80;20928;-85
2022/11/09 02:39:06;;;;;;;30.90;18.00;;;;;;;2.91;95.07;98946.84;2221742;80;20964;-84
2022/11/09 02:42:06;;;;;;;31.17;18.60;;;;;;;2.85;94.78;98938.43;2221480;80;21344;-84
2022/11/09 02:45:07;;;;;;;30.20;18.90;;;;;;;2.81;95.03;98935.25;2221778;80;20940;-84
2022/11/09 02:48:07;;;;;;;33.20;17.73;;;;;;;2.77;94.81;98929.48;2221617;80;20908;-84
2022/11/09 02:51:07;;;;;;;26.17;16.57;;;;;;;2.76;94.85;98931.59;2221846;80;20964;-84
2022/11/09 02:54:08;;;;;;;164.83;21.90;;;;;;;2.76;94.52;98939.72;2221861;80;20999;-84
2022/11/09 02:57:08;;;;;;;26.03;16.40;;;;;;;2.72;94.64;98938.70;2221669;80;21281;-84
2022/11/09 03:00:09;;;;;;;25.33;16.37;;;;;;;2.74;94.66;98931.05;2221465;80;20892;-83
2022/11/09 03:03:09;;;;;;;40.60;18.20;;;;;;;2.69;94.32;98936.41;2221596;80;21019;-84
2022/11/09 03:06:09;;;;;;;29.03;17.53;;;;;;;2.65;94.41;98937.08;2221403;80;20975;-84
2022/11/09 03:09:10;;;;;;;32.67;16.97;;;;;;;2.65;94.56;98937.08;2221762;80;21343;-84
2022/11/09 03:12:29;;;;;;;26.83;16.53;;;;;;;2.59;94.21;98933.80;2221550;80;20936;-84
2022/11/09 03:15:29;;;;;;;28.13;16.60;;;;;;;2.59;94.51;98934.20;2221757;80;20948;-85
2022/11/09 03:18:29;;;;;;;24.07;17.33;;;;;;;2.60;94.48;98935.97;2221630;80;21315;-84
2022/11/09 03:21:30;;;;;;;33.07;17.83;;;;;;;2.62;94.52;98931.39;2221741;80;21010;-84
2022/11/09 03:24:30;;;;;;;32.50;19.93;;;;;;;2.63;94.50;98934.84;2221417;80;20969;-84
2022/11/09 03:27:31;;;;;;;26.50;17.20;;;;;;;2.59;94.22;98929.92;2221842;80;21290;-84
2022/11/09 03:30:31;;;;;;;32.63;18.70;;;;;;;2.58;94.27;98933.73;2221807;80;20948;-84
2022/11/09 03:33:31;;;;;;;24.83;17.17;;;;;;;2.54;94.47;98936.17;2221909;80;20975;-84
2022/11/09 03:36:32;;;;;;;31.67;18.53;;;;;;;2.53;94.41;98930.95;2222017;80;20897;-84
2022/11/09 03:39:32;;;;;;;31.17;18.70;;;;;;;2.51;94.76;98936.44;2222257;80;20901;-84
2022/11/09 03:42:33;;;;;;;27.27;18.10;;;;;;;2.47;94.52;98938.00;2222058;80;20908;-84
2022/11/09 03:45:33;;;;;;;29.37;18.50;;;;;;;2.45;94.68;98947.34;2221780;80;20972;-84
2022/11/09 03:48:33;;;;;;;31.63;19.03;;;;;;;2.45;94.69;98935.76;2221985;80;21607;-84
2022/11/09 03:51:34;;;;;;;77.50;22.30;;;;;;;2.44;94.68;98939.14;2221996;80;20968;-82
2022/11/09 03:54:36;;;;;;;58.83;20.57;;;;;;;2.42;94.65;98933.45;2191780;80;20968;-85
2022/11/09 03:57:37;;;;;;;31.53;17.77;;;;;;;2.45;94.88;98931.89;2222059;80;20936;-85
2022/11/09 04:00:37;;;;;;;30.03;17.03;;;;;;;2.44;94.40;98929.25;2222080;80;20967;-83
2022/11/09 04:03:37;;;;;;;27.00;17.47;;;;;;;2.38;93.85;98928.56;2216437;80;21046;-83
2022/11/09 04:06:38;;;;;;;30.53;18.33;;;;;;;2.34;93.77;98931.81;2211801;81;20917;-84
2022/11/09 04:09:38;;;;;;;43.07;21.73;;;;;;;2.31;94.10;98925.64;2211774;81;20948;-84
2022/11/09 04:12:39;;;;;;;831.83;68.13;;;;;;;2.36;94.54;98922.87;2212278;81;20929;-84
2022/11/09 04:15:39;;;;;;;60.83;24.47;;;;;;;2.45;95.84;98921.59;2211735;81;20968;-82
2022/11/09 04:18:39;;;;;;;64.93;26.53;;;;;;;2.53;95.93;98914.20;2211688;81;21253;-83
2022/11/09 04:21:40;;;;;;;44.90;25.13;;;;;;;2.61;96.98;98913.28;2211190;81;20988;-82
2022/11/09 04:24:40;;;;;;;48.17;26.33;;;;;;;2.73;97.75;98910.83;2211329;81;20952;-83
2022/11/09 04:27:41;;;;;;;42.80;26.80;;;;;;;2.78;97.65;98905.88;2211165;81;20917;-81
2022/11/09 04:30:42;;;;;;;60.23;26.63;;;;;;;2.80;97.78;98910.69;2210828;81;21031;-80
2022/11/09 04:33:42;;;;;;;1435.33;128.77;;;;;;;2.89;98.49;98905.92;2211063;81;21437;-82
2022/11/09 04:36:42;;;;;;;120.37;28.40;;;;;;;2.95;98.58;98905.31;2211418;81;21011;-82
2022/11/09 04:39:42;;;;;;;50.83;26.53;;;;;;;3.23;100.00;98901.77;2211862;81;20936;-83
2022/11/09 04:42:43;;;;;;;49.60;27.47;;;;;;;3.36;99.60;98899.30;2211402;80;20944;-83
2022/11/09 04:45:43;;;;;;;107.87;29.23;;;;;;;3.31;98.61;98907.25;2211470;81;20952;-80
2022/11/09 04:48:44;;;;;;;56.90;28.07;;;;;;;3.28;98.21;98911.87;2210387;81;20980;-82
2022/11/09 04:51:44;;;;;;;45.37;25.13;;;;;;;3.30;98.44;98920.56;2209729;81;20960;-81
2022/11/09 04:54:44;;;;;;;43.37;26.37;;;;;;;3.33;98.08;98914.64;2210657;81;21359;-82
2022/11/09 04:57:45;;;;;;;42.77;27.47;;;;;;;3.28;97.39;98917.45;2210881;81;20991;-84
2022/11/09 05:00:47;;;;;;;41.60;24.60;;;;;;;3.23;97.19;98919.83;2211473;81;20980;-82
2022/11/09 05:03:47;;;;;;;45.10;25.40;;;;;;;3.19;97.01;98917.95;2210969;80;21011;-82
2022/11/09 05:06:48;;;;;;;43.50;25.80;;;;;;;3.19;97.71;98916.66;2210719;81;21349;-82
2022/11/09 05:09:48;;;;;;;44.70;25.80;;;;;;;3.21;97.40;98911.15;2208798;81;20989;-82
2022/11/09 05:12:48;;;;;;;50.53;25.43;;;;;;;3.63;100.00;98909.88;2208073;81;20960;-81
2022/11/09 05:15:49;;;;;;;51.97;27.37;;;;;;;3.63;98.24;98908.18;2208511;81;21520;-82
2022/11/09 05:18:49;;;;;;;45.80;26.40;;;;;;;3.56;98.22;98905.29;2207428;81;21015;-83
2022/11/09 05:21:50;;;;;;;47.37;27.40;;;;;;;3.50;97.87;98908.51;2207399;81;21039;-83
2022/11/09 05:24:50;;;;;;;45.13;26.90;;;;;;;3.44;98.03;98903.06;2206996;81;21439;-83
2022/11/09 05:27:51;;;;;;;47.43;28.20;;;;;;;3.43;98.08;98907.75;2207974;81;21896;-82
2022/11/09 05:30:51;;;;;;;56.07;29.70;;;;;;;3.41;98.44;98906.40;2208122;81;21026;-82
2022/11/09 05:33:51;;;;;;;297.13;38.07;;;;;;;3.45;98.82;98921.59;2207947;81;21059;-81
2022/11/09 05:36:52;;;;;;;54.43;29.23;;;;;;;3.48;98.93;98913.61;2207676;81;20953;-81
2022/11/09 05:39:52;;;;;;;47.57;28.20;;;;;;;3.51;99.15;98918.02;2207841;80;20972;-82
2022/11/09 05:42:54;;;;;;;53.77;28.10;;;;;;;3.53;99.06;98914.20;2208028;81;20998;-80
2022/11/09 05:45:53;;;;;;;45.93;28.43;;;;;;;3.54;98.75;98918.55;2207709;81;20999;-81
2022/11/09 05:48:53;;;;;;;88.23;30.50;;;;;;;3.54;98.75;98918.55;2207912;81;20984;-83
2022/11/09 05:51:54;;;;;;;40.20;25.67;;;;;;;3.53;98.94;98917.66;2208160;81;21011;-82
2022/11/09 05:54:55;;;;;;;48.13;26.77;;;;;;;3.56;98.92;98926.82;2208102;81;21704;-82
2022/11/09 05:57:55;;;;;;;76.53;28.13;;;;;;;3.57;98.71;98926.00;2208280;81;21004;-83
2022/11/09 06:00:55;;;;;;;46.20;27.70;;;;;;;3.59;98.58;98922.19;2208327;81;20967;-83
2022/11/09 06:03:55;;;;;;;46.70;27.87;;;;;;;3.61;98.79;98922.73;2208219;81;22113;-83
2022/11/09 06:06:56;;;;;;;41.30;25.90;;;;;;;3.66;99.40;98922.91;2208315;81;20940;-82
2022/11/09 06:09:56;;;;;;;43.23;26.10;;;;;;;3.69;99.46;98919.16;2208525;81;20999;-81
2022/11/09 06:12:57;;;;;;;43.83;26.23;;;;;;;3.76;99.44;98926.33;2208717;81;20995;-83
2022/11/09 06:15:57;;;;;;;68.63;28.80;;;;;;;3.81;99.16;98918.35;2208595;81;21058;-85
2022/11/09 06:18:58;;;;;;;48.83;26.37;;;;;;;3.88;99.15;98931.09;2208625;81;20924;-83
2022/11/09 06:21:58;;;;;;;50.60;26.57;;;;;;;3.97;99.25;98934.04;2209377;81;20968;-83
2022/11/09 06:24:58;;;;;;;42.63;25.20;;;;;;;4.03;99.09;98937.74;2208248;81;20996;-84
2022/11/09 06:27:59;;;;;;;41.40;25.37;;;;;;;4.12;98.99;98947.14;2208068;81;20976;-82
2022/11/09 06:30:59;;;;;;;46.83;25.80;;;;;;;4.21;98.86;98942.73;2208180;81;21387;-85
2022/11/09 06:34:00;;;;;;;42.77;26.80;;;;;;;4.27;98.91;98941.67;2208102;81;21026;-83
2022/11/09 06:37:00;;;;;;;49.47;26.90;;;;;;;4.36;98.82;98933.02;2208663;81;20996;-84
2022/11/09 06:40:00;;;;;;;56.97;25.50;;;;;;;4.45;98.58;98937.23;2209762;81;20995;-84
2022/11/09 06:43:01;;;;;;;44.97;25.30;;;;;;;4.57;98.64;98941.09;2208711;81;21042;-84
2022/11/09 06:46:01;;;;;;;38.13;25.50;;;;;;;4.65;98.30;98945.72;2207087;81;21427;-83
2022/11/09 06:49:02;;;;;;;239.67;35.07;;;;;;;4.79;98.46;98939.76;2207060;81;21030;-84
2022/11/09 06:52:02;;;;;;;42.97;25.60;;;;;;;4.92;98.50;98943.25;2207547;81;21012;-84
2022/11/09 06:55:03;;;;;;;49.93;26.77;;;;;;;5.06;98.22;98943.31;2207408;81;21004;-84
2022/11/09 06:58:03;;;;;;;61.47;26.97;;;;;;;5.18;98.09;98936.80;2207229;81;20964;-82
2022/11/09 07:01:04;;;;;;;180.63;32.40;;;;;;;5.34;98.37;98937.83;2207662;81;21042;-82
2022/11/09 07:04:05;;;;;;;47.23;25.07;;;;;;;5.51;98.20;98938.39;2211893;80;21027;-84
2022/11/09 07:07:05;;;;;;;40.27;24.53;;;;;;;5.63;97.73;98934.91;2219453;80;20944;-82
2022/11/09 07:10:06;;;;;;;47.37;26.47;;;;;;;5.73;97.39;98932.67;2218603;80;20991;-84
2022/11/09 07:13:06;;;;;;;126.97;29.70;;;;;;;5.83;97.12;98931.25;2219347;80;20987;-84
2022/11/09 07:16:07;;;;;;;55.37;26.37;;;;;;;5.96;96.98;98929.54;2219314;80;21051;-84
2022/11/09 07:19:07;;;;;;;39.53;26.27;;;;;;;6.09;96.83;98932.13;2219568;80;20999;-83
2022/11/09 07:22:07;;;;;;;39.23;25.27;;;;;;;6.26;96.96;98923.16;2219132;80;20995;-82
2022/11/09 07:25:08;;;;;;;40.30;26.57;;;;;;;6.46;96.87;98923.74;2219466;80;20995;-84
2022/11/09 07:28:08;;;;;;;45.63;27.37;;;;;;;6.65;96.66;98919.96;2219649;80;20960;-83
2022/11/09 07:31:09;;;;;;;40.37;26.40;;;;;;;6.90;96.67;98908.12;2219646;80;20964;-83
2022/11/09 07:34:09;;;;;;;42.37;27.53;;;;;;;7.21;96.38;98911.58;2219039;80;21027;-82
2022/11/09 07:37:09;;;;;;;46.73;28.03;;;;;;;7.46;96.23;98916.55;2218731;80;20963;-82
2022/11/09 07:40:10;;;;;;;40.90;27.37;;;;;;;7.69;96.02;98913.23;2218132;80;20984;-83
2022/11/09 07:43:10;;;;;;;41.20;26.27;;;;;;;7.94;95.67;98910.81;2218681;80;20935;-84
2022/11/09 07:46:14;;;;;;;47.73;28.90;;;;;;;8.13;94.99;98906.91;2218353;80;21454;-83
2022/11/09 07:49:14;;;;;;;42.57;27.90;;;;;;;8.23;94.89;98912.36;2219058;80;21014;-82
2022/11/09 07:52:14;;;;;;;720.37;57.17;;;;;;;8.32;94.24;98906.48;2219585;80;21039;-84
2022/11/09 07:55:15;;;;;;;248.67;35.57;;;;;;;8.44;94.10;98903.29;2219831;80;21027;-83
2022/11/09 07:58:15;;;;;;;63.27;28.43;;;;;;;8.56;94.05;98894.44;2219178;80;20971;-83
2022/11/09 08:01:16;;;;;;;57.23;27.70;;;;;;;8.65;93.75;98901.55;2218804;80;21603;-83
2022/11/09 08:04:16;;;;;;;41.57;24.97;;;;;;;8.78;93.74;98903.59;2214561;80;21040;-84
2022/11/09 08:07:16;;;;;;;46.03;27.57;;;;;;;8.82;93.37;98896.30;2208752;81;20929;-83
2022/11/09 08:10:17;;;;;;;38.43;25.13;;;;;;;8.82;93.30;98894.99;2208914;81;20976;-83
2022/11/09 08:13:17;;;;;;;40.53;26.40;;;;;;;8.85;93.22;98888.13;2208377;81;21411;-80
2022/11/09 08:16:21;;;;;;;49.17;27.13;;;;;;;8.85;92.70;98881.61;2208873;80;20967;-82
2022/11/09 08:19:21;;;;;;;68.27;27.67;;;;;;;8.85;92.71;98880.73;2208956;81;21392;-86
2022/11/09 08:22:22;;;;;;;52.80;28.20;;;;;;;8.89;92.85;98884.73;2208277;81;20972;-85
2022/11/09 08:25:22;;;;;;;64.27;30.70;;;;;;;8.92;92.62;98886.09;2208058;81;20944;-84
2022/11/09 08:28:22;;;;;;;47.03;29.03;;;;;;;9.00;93.01;98885.36;2208024;81;21039;-84
2022/11/09 08:31:23;;;;;;;44.73;28.77;;;;;;;9.13;93.09;98884.30;2207969;81;20999;-84
2022/11/09 08:34:23;;;;;;;46.43;28.60;;;;;;;9.32;92.89;98884.20;2207785;81;21403;-84
2022/11/09 08:37:24;;;;;;;47.90;30.33;;;;;;;9.48;92.90;98874.92;2207607;81;20944;-85
2022/11/09 08:40:24;;;;;;;61.57;31.03;;;;;;;9.72;92.53;98884.47;2207704;81;20996;-84
2022/11/09 08:43:24;;;;;;;42.53;28.57;;;;;;;9.98;92.18;98880.95;2207966;81;20992;-84
2022/11/09 08:46:28;;;;;;;73.55;32.23;;;;;;;10.18;91.21;98882.11;2207689;81;20988;-85
2022/11/09 08:49:28;;;;;;;46.93;30.33;;;;;;;10.31;90.88;98884.92;2207841;81;20999;-83
2022/11/09 08:52:29;;;;;;;45.65;29.60;;;;;;;10.51;90.75;98883.48;2207234;81;20996;-84
2022/11/09 08:55:30;;;;;;;41.70;29.12;;;;;;;10.73;89.94;98881.58;2208729;80;20999;-84
2022/11/09 08:58:30;;;;;;;46.20;29.05;;;;;;;10.85;89.55;98872.58;2208704;81;21430;-82
2022/11/09 09:01:30;;;;;;;45.52;29.85;;;;;;;11.04;89.27;98872.78;2207538;81;20967;-83
2022/11/09 09:04:30;;;;;;;46.33;28.90;;;;;;;11.18;88.25;98868.56;2207854;80;21071;-83
2022/11/09 09:07:31;;;;;;;43.90;29.02;;;;;;;11.31;87.92;98873.51;2208413;81;21083;-83
2022/11/09 09:10:31;;;;;;;47.45;30.32;;;;;;;11.31;87.12;98875.69;2208408;81;20937;-84
2022/11/09 09:13:32;;;;;;;127.05;33.40;;;;;;;11.30;87.21;98879.59;2208570;81;20999;-83
2022/11/09 09:16:32;;;;;;;118.15;32.20;;;;;;;11.33;87.49;98881.81;2208890;81;20979;-83
2022/11/09 09:19:33;;;;;;;54.25;29.67;;;;;;;11.44;87.39;98887.13;2208910;81;21395;-83
2022/11/09 09:22:33;;;;;;;87.62;31.37;;;;;;;11.53;87.12;98887.22;2208456;81;20964;-83
2022/11/09 09:25:33;;;;;;;52.62;31.25;;;;;;;11.58;86.63;98883.33;2208943;81;20968;-83
2022/11/09 09:28:34;;;;;;;52.58;34.50;;;;;;;11.60;86.38;98883.79;2208462;81;20948;-84
2022/11/09 09:31:34;;;;;;;53.28;35.90;;;;;;;11.65;86.05;98886.44;2209199;80;20968;-85
2022/11/09 09:34:34;;;;;;;55.33;37.17;;;;;;;11.71;85.88;98887.37;2209825;81;21442;-85
2022/11/09 09:37:35;;;;;;;58.28;33.67;;;;;;;11.75;85.52;98882.60;2208907;81;20984;-83
2022/11/09 09:40:35;;;;;;;61.00;36.13;;;;;;;11.82;85.23;98882.25;2208465;81;20936;-84
2022/11/09 09:43:36;;;;;;;58.48;32.67;;;;;;;11.89;85.11;98877.50;2208421;81;20964;-83
2022/11/09 09:46:36;;;;;;;46.58;29.98;;;;;;;11.97;84.38;98885.41;2207962;81;21396;-82
2022/11/09 09:49:37;;;;;;;45.20;30.20;;;;;;;12.04;84.24;98875.42;2208160;81;20968;-83
2022/11/09 09:52:37;;;;;;;50.33;31.70;;;;;;;12.12;84.20;98873.30;2207990;81;21338;-83
2022/11/09 09:55:37;;;;;;;46.90;31.90;;;;;;;12.21;83.53;98871.64;2207928;81;21090;-83
2022/11/09 09:58:38;;;;;;;43.63;29.35;;;;;;;12.32;83.52;98868.64;2207949;81;21403;-83
2022/11/09 10:01:38;;;;;;;71.53;31.25;;;;;;;12.37;83.08;98869.11;2207456;81;21011;-81
2022/11/09 10:04:39;;;;;;;110.20;35.73;;;;;;;12.48;83.13;98870.91;2207615;80;21106;-83
2022/11/09 10:07:39;;;;;;;45.43;29.50;;;;;;;12.51;82.74;98869.61;2207673;81;20999;-81
2022/11/09 10:10:43;;;;;;;38.90;27.77;;;;;;;12.62;82.85;98870.09;2207802;81;20965;-82
2022/11/09 10:13:40;;;;;;;47.53;28.83;;;;;;;12.68;82.40;98869.23;2207988;81;21044;-83
2022/11/09 10:16:42;;;;;;;44.53;28.98;;;;;;;12.70;82.06;98869.69;2208282;81;21260;-83
2022/11/09 10:19:42;;;;;;;45.35;29.37;;;;;;;12.68;81.76;98866.63;2186279;81;21046;-83
2022/11/09 10:22:44;;;;;;;40.20;28.00;;;;;;;12.67;81.76;98865.75;2207331;81;20948;-84
2022/11/09 10:25:43;;;;;;;57.65;26.07;;;;;;;12.69;81.85;98869.25;2207789;81;21038;-83
2022/11/09 10:28:44;;;;;;;283.32;41.05;;;;;;;12.81;86.08;98872.78;2207531;81;21380;-82
2022/11/09 10:31:44;;;;;;;50.67;31.10;;;;;;;13.11;82.26;98870.27;2207592;81;21051;-82
2022/11/09 10:34:45;;;;;;;52.45;32.20;;;;;;;13.07;81.13;98870.70;2207969;81;21133;-82
2022/11/09 10:37:45;;;;;;;61.48;32.58;;;;;;;13.02;81.40;98873.75;2208114;81;20920;-82
2022/11/09 10:40:45;;;;;;;123.13;33.18;;;;;;;13.00;80.50;98878.52;2208123;81;21647;-81
2022/11/09 10:43:46;;;;;;;193.13;36.42;;;;;;;12.95;81.05;98875.00;2208394;81;20980;-82
2022/11/09 10:46:46;;;;;;;57.88;32.73;;;;;;;12.96;81.41;98878.06;2208077;81;21039;-81
2022/11/09 10:49:47;;;;;;;63.38;34.13;;;;;;;13.01;81.21;98877.23;2208011;80;20992;-83
2022/11/09 10:52:47;;;;;;;54.50;33.42;;;;;;;13.05;81.17;98877.69;2207803;81;21423;-81
2022/11/09 10:55:47;;;;;;;45.12;30.40;;;;;;;13.11;80.82;98867.66;2207368;81;21039;-82
2022/11/09 10:58:49;;;;;;;107.37;36.53;;;;;;;13.21;80.32;98862.90;2211527;80;22368;-81
2022/11/09 11:01:49;;;;;;;44.67;30.48;;;;;;;13.31;80.17;98863.35;2207816;81;20995;-82
2022/11/09 11:04:49;;;;;;;42.53;29.70;;;;;;;13.44;80.37;98861.61;2210142;80;21015;-79
2022/11/09 11:07:50;;;;;;;50.80;28.50;;;;;;;13.54;79.75;98861.17;2217081;80;21395;-82
2022/11/09 11:10:50;;;;;;;54.20;27.58;;;;;;;13.61;79.20;98853.75;2217994;80;21351;-82
2022/11/09 11:13:51;;;;;;;55.67;27.40;;;;;;;13.61;78.98;98853.75;2215657;80;21026;-82
2022/11/09 11:16:51;;;;;;;35.83;25.05;;;;;;;13.64;79.81;98853.31;2217990;80;21031;-83
2022/11/09 11:19:51;;;;;;;36.40;21.10;;;;;;;13.75;79.52;98859.86;2219048;80;20956;-82
2022/11/09 11:22:52;;;;;;;28.17;20.70;;;;;;;13.74;77.16;98859.42;2218923;80;20980;-82
2022/11/09 11:25:52;;;;;;;34.92;21.55;;;;;;;13.74;76.13;98857.23;2218344;80;20999;-82
2022/11/09 11:28:53;;;;;;;36.75;21.33;;;;;;;13.76;74.88;98858.98;2217755;80;20987;-81
2022/11/09 11:31:53;;;;;;;28.95;20.37;;;;;;;13.78;72.37;98854.61;2217647;80;20936;-83
2022/11/09 11:34:53;;;;;;;30.05;20.10;;;;;;;13.75;74.65;98853.30;2217614;80;20964;-83
2022/11/09 11:37:54;;;;;;;27.77;19.00;;;;;;;14.12;81.49;98847.59;2218167;80;20991;-83
2022/11/09 11:40:56;;;;;;;33.38;19.30;;;;;;;15.78;77.96;98845.45;2218251;80;20974;-82
2022/11/09 11:43:56;;;;;;;24.55;19.02;;;;;;;17.00;79.01;98844.11;2217903;80;20987;-83
2022/11/09 11:46:56;;;;;;;30.35;20.25;;;;;;;18.02;71.32;98835.92;2217470;80;21643;-84
2022/11/09 11:49:57;;;;;;;31.40;20.62;;;;;;;18.20;67.14;98836.03;2217737;80;20955;-84
2022/11/09 11:52:57;;;;;;;28.77;18.92;;;;;;;18.53;68.53;98835.86;2217880;80;20999;-79
2022/11/09 11:55:58;;;;;;;27.60;18.60;;;;;;;18.80;66.43;98836.22;2214715;80;21595;-84
2022/11/09 11:58:58;;;;;;;32.55;20.90;;;;;;;19.16;67.39;98835.44;2218159;80;21724;-83
2022/11/09 12:01:58;;;;;;;25.25;18.55;;;;;;;19.78;65.70;98831.75;2218476;80;21063;-84
2022/11/09 12:04:59;;;;;;;27.52;18.02;;;;;;;19.86;60.53;98833.75;2219044;80;20968;-82
2022/11/09 12:07:59;;;;;;;25.52;18.42;;;;;;;19.94;63.17;98837.11;2219316;80;21715;-83
2022/11/09 12:11:00;;;;;;;28.10;17.23;;;;;;;19.80;56.43;98838.34;2219729;80;21000;-85
2022/11/09 12:14:00;;;;;;;23.60;16.93;;;;;;;19.63;59.47;98836.11;2220005;80;21521;-84
2022/11/09 12:17:01;;;;;;;31.15;19.42;;;;;;;19.76;59.51;98842.84;2220020;80;21019;-82
2022/11/09 12:20:01;;;;;;;39.30;19.35;;;;;;;19.76;55.68;98836.67;2220417;80;20948;-83
2022/11/09 12:23:01;;;;;;;30.20;18.57;;;;;;;19.63;60.36;98838.30;2220241;80;21023;-84
2022/11/09 12:26:02;;;;;;;30.80;18.10;;;;;;;19.88;59.84;98833.72;2218948;80;20991;-84
2022/11/09 12:29:02;;;;;;;48.40;18.98;;;;;;;20.01;55.63;98834.71;2218883;80;21004;-84
2022/11/09 12:32:05;;;;;;;19.15;16.20;;;;;;;19.31;57.28;98835.08;2190116;80;21073;-84
2022/11/09 12:35:05;;;;;;;30.95;18.90;;;;;;;19.27;56.65;98839.16;2218618;80;21268;-85
2022/11/09 12:38:05;;;;;;;43.08;17.67;;;;;;;19.47;58.67;98833.39;2218997;80;20955;-83
2022/11/09 12:41:06;;;;;;;23.40;17.20;;;;;;;19.92;57.41;98834.92;2218841;80;21630;-84
2022/11/09 12:44:08;;;;;;;62.80;19.92;;;;;;;20.09;54.44;98841.59;2218797;80;20940;-83
2022/11/09 12:47:08;;;;;;;31.70;18.10;;;;;;;19.68;57.17;98839.52;2191294;80;20971;-84
2022/11/09 12:50:09;;;;;;;43.73;17.90;;;;;;;19.98;58.36;98833.92;2219188;80;20952;-84
2022/11/09 12:53:09;;;;;;;30.80;16.62;;;;;;;20.14;56.90;98833.93;2218929;80;20975;-83
2022/11/09 12:56:10;;;;;;;33.05;16.65;;;;;;;20.24;56.98;98832.77;2218384;80;21011;-84
2022/11/09 12:59:10;;;;;;;140.57;23.70;;;;;;;20.22;54.34;98835.92;2218533;80;20995;-83
2022/11/09 13:02:10;;;;;;;27.90;16.67;;;;;;;20.22;54.83;98831.08;2219852;80;20981;-83
2022/11/09 13:05:11;;;;;;;23.47;16.87;;;;;;;20.22;54.42;98832.39;2218014;80;20988;-83
2022/11/09 13:08:11;;;;;;;29.75;16.57;;;;;;;18.86;53.44;98835.63;2209059;81;20991;-82
2022/11/09 13:11:12;;;;;;;49.13;18.50;;;;;;;17.67;55.21;98836.99;2208126;81;20960;-83
2022/11/09 13:14:12;;;;;;;32.93;18.80;;;;;;;16.84;56.61;98840.81;2207609;81;20984;-81
2022/11/09 13:17:12;;;;;;;28.10;18.55;;;;;;;16.28;58.01;98843.20;2207575;80;20980;-81
2022/11/09 13:20:13;;;;;;;46.85;19.23;;;;;;;15.85;59.20;98836.62;2207942;81;21371;-82
2022/11/09 13:23:13;;;;;;;33.78;19.15;;;;;;;15.55;60.33;98839.45;2207638;81;20933;-81
2022/11/09 13:26:14;;;;;;;31.23;19.48;;;;;;;15.32;61.26;98845.33;2206909;81;20940;-82
2022/11/09 13:29:15;;;;;;;36.63;18.70;;;;;;;15.09;62.14;98845.05;2206707;81;20983;-83
2022/11/09 13:32:15;;;;;;;26.73;18.75;;;;;;;14.87;63.08;98843.42;2207153;81;20971;-83
2022/11/09 13:35:15;;;;;;;84.65;20.60;;;;;;;14.66;63.95;98841.30;2207520;81;21016;-82
2022/11/09 13:38:15;;;;;;;27.98;17.92;;;;;;;14.45;64.74;98845.34;2206943;81;21043;-80
2022/11/09 13:41:16;;;;;;;21.60;16.05;;;;;;;14.28;65.30;98841.86;2207471;81;21384;-80
2022/11/09 13:44:16;;;;;;;29.27;18.87;;;;;;;14.11;65.99;98837.97;2208257;81;21398;-80
2022/11/09 13:47:16;;;;;;;32.10;18.40;;;;;;;13.98;66.49;98837.56;2208395;81;20960;-81
2022/11/09 13:50:17;;;;;;;92.22;22.27;;;;;;;13.81;67.04;98834.93;2208225;80;21004;-79
2022/11/09 13:53:17;;;;;;;53.80;19.42;;;;;;;13.73;67.47;98842.37;2208519;80;21047;-81
2022/11/09 13:56:18;;;;;;;63.33;21.42;;;;;;;13.62;67.97;98839.32;2208498;81;21004;-82